LKMTLKKB

Guest
Details From LKMT - Ostrava Mosnov
To LKKB - Kbely
Flight Number -
Tags generated
Created
Modified
Stats Distance 140 nm / 260 km
Max Altitude 8,200 ft / 2,499 m
Waypoints 3
Social Downloads 0
Likes 0
Share VATSIM

Download

Looking for another format? Having issues loading an existing format? Contact us
Advertisement - Login to hide

Notes

Basic altitude profile: - Ascent Rate: 2500ft/min - Ascent Speed: 250kts - Cruise Altitude: 35000ft - Cruise Speed: 420kts - Descent Rate: 1500ft/min - Descent Speed: 250kts Options: - Use NATs: yes - Use PACOTS: yes - Use low airways: yes - Use high airways: yes

Route

LKMT PEMUR LKKB

ID Type Via Altitude Latitude Longitude Leg Dist Tot Dist Heading (true) Name
O LKMT APT - 0 ft / 0 m 49.69622˚ 18.11085˚ - 0 nm - Ostrava Mosnov
PEMUR FIX - 8,200 ft / 2,499 m 50.05467˚ 15.53824˚ 101 nm 101 nm 283° / 281° -
O LKKB APT - 0 ft / 0 m 50.12075˚ 14.54270˚ 38 nm 140 nm 276° / 276° Kbely

Altitude Profile

Advertisement - Login to hide

LKMT

Details ICAO LKMT (OSR)
Name Ostrava Mosnov
Region Czech Republic
Timezone Europe/Prague (UTC+1.0)
Stats Elevation 843 ft / 257 m (AMSL)
Location 49.696217° 18.110855°
Runways 1
Magnetic Variation 4.765° E

METAR

LKMT 172200Z 28004KT 6000 -SN OVC020 M00/M01 Q1021 TEMPO 4000 -SN

Decode

TAF

TAF LKMT 171700Z 1718/1900 21008KT 9999 BKN030 TEMPO 1718/1818 5000 SHSN BKN013 BECMG 1718/1719 VRB02KT BECMG 1722/1802 03004KT PROB30 TEMPO 1800/1809 2500 BR BKN004 BECMG 1821/1823 5000 BR SCT005

Decode

Departure Runways

ID Width Length Bearing (true) Bearing (mag) Surface Threshold Offset Overrun Length
04 207 ft / 63 m 11,532 ft / 3,515 m 46.29° 41.53° Concrete 0 ft / 0 m 52 ft / 16 m
22 207 ft / 63 m 11,532 ft / 3,515 m 226.31° 221.55° Concrete 0 ft / 0 m 49 ft / 15 m

LKKB

Details ICAO LKKB
Name Kbely
Region Czech Republic
Timezone Europe/Prague (UTC+1.0)
Stats Elevation 939 ft / 286 m (AMSL)
Location 50.120746° 14.542697°
Runways 2
Magnetic Variation 3.936° E

METAR

LKKB 172200Z 30005KT 260V330 9999 SCT033 BKN050 M01/M04 Q1023

Decode

TAF

TAF LKKB 171700Z 1718/1818 29004KT 9999 BKN040 TEMPO 1718/1722 5000 SHSN SCT012 BKN020 BECMG 1722/1800 VRB02KT SCT040

Decode

Destination Runways

ID Width Length Bearing (true) Bearing (mag) Surface Threshold Offset Overrun Length
06L 164 ft / 50 m 6,552 ft / 1,997 m 62.36° 58.42° Asphalt 0 ft / 0 m 0 ft / 0 m
06R 157 ft / 48 m 4,875 ft / 1,486 m 62.30° 58.36° Grass 0 ft / 0 m 0 ft / 0 m
24L 157 ft / 48 m 4,875 ft / 1,486 m 242.31° 238.37° Grass 0 ft / 0 m 0 ft / 0 m
24R 164 ft / 50 m 6,552 ft / 1,997 m 242.38° 238.44° Asphalt 0 ft / 0 m 0 ft / 0 m

Approach Navaids

Runway Type Ident Frequency Range Bearing (true) Bearing (mag) Slope Elevation
24R Localiser KD 108.35 MHz 18 nm / 33 km 242.31° 238.38° - 916 ft / 279 m (AMSL)
24R Glidescope KD 108.35 MHz 10 nm / 19 km 242.37° 238.44° 3.00° 916 ft / 279 m (AMSL)
24R DME KD 108.35 MHz 18 nm / 33 km - - - 976 ft / 297 m (AMSL)